Riacho Dos Cavalos, Brazil
Current Conditions -  °F | °C
As of 7:00 PM on Friday 19 Dec 2014 (Local Time) from SBMS Reporting Station
Clear Clear  
Wind Chill: 82°   Ceiling: Unl
Heat Index: 88°   Visibility: 6mi
Dew Point: 73°   Wind: 15mph
Humidity: 74%   Direction: 50°NE
Pressure: 29.88"   Gusts: NA
Location:  6.44°S, 37.66°W
Report Text: SBMS 192200Z 05013KT CAVOK 28/23 Q1012
Loading
Personal Weather Stations






























Interactive Weather Map New forecast layout! Learn more

10-Day Weather Forecast

Advertisements
Track Severe Weather on mobile